Time;durP1;ratioP1;P1;durP2;ratioP2;P2;SDS_P1;SDS_P2;PMS_P1;PMS_P2;Temp;Humidity;BMP_temperature;BMP_pressure;BME280_temperature;BME280_humidity;BME280_pressure;Samples;Min_cycle;Max_cycle;Signal;HPM_P1;HPM_P2
2023/02/04 00:01:48;;;;;;;31.73;5.17;;;;;;;;;;5040722;28;20124;-76
2023/02/04 00:04:14;;;;;;;20.37;4.23;;;;;;;;;;5041863;28;20096;-76
2023/02/04 00:06:40;;;;;;;30.60;5.47;;;;;;;;;;5043975;28;20026;-76
2023/02/04 00:09:06;;;;;;;22.13;4.50;;;;;;;;;;5041312;28;20037;-77
2023/02/04 00:11:32;;;;;;;26.47;4.33;;;;;;;;;;5042378;28;20052;-76
2023/02/04 00:13:58;;;;;;;30.73;5.53;;;;;;;;;;5041712;28;20052;-77
2023/02/04 00:16:24;;;;;;;32.67;5.53;;;;;;;;;;5041487;28;20426;-77
2023/02/04 00:18:51;;;;;;;30.23;5.40;;;;;;;;;;5029654;28;20086;-76
2023/02/04 00:21:19;;;;;;;24.17;4.37;;;;;;;;;;5040717;28;20065;-76
2023/02/04 00:23:45;;;;;;;26.37;4.60;;;;;;;;;;5043105;28;20029;-77
2023/02/04 00:26:11;;;;;;;34.37;6.07;;;;;;;;;;5027420;28;21589;-76
2023/02/04 00:28:37;;;;;;;25.00;5.60;;;;;;;;;;5040195;28;20121;-76
2023/02/04 00:31:03;;;;;;;25.80;4.60;;;;;;;;;;5025655;28;20037;-77
2023/02/04 00:33:29;;;;;;;30.17;4.80;;;;;;;;;;5040155;28;20040;-77
2023/02/04 00:35:55;;;;;;;26.40;5.63;;;;;;;;;;5043258;28;20025;-76
2023/02/04 00:38:21;;;;;;;25.10;4.63;;;;;;;;;;5039520;28;20374;-77
2023/02/04 00:40:48;;;;;;;25.53;4.90;;;;;;;;;;5041890;28;20025;-78
2023/02/04 00:43:13;;;;;;;23.70;4.80;;;;;;;;;;5040608;28;20025;-77
2023/02/04 00:45:39;;;;;;;35.13;5.73;;;;;;;;;;5041148;28;20124;-77
2023/02/04 00:48:05;;;;;;;23.47;5.13;;;;;;;;;;5025597;28;20445;-77
2023/02/04 00:50:33;;;;;;;25.57;5.23;;;;;;;;;;5040819;28;20124;-75
2023/02/04 00:53:00;;;;;;;32.30;5.53;;;;;;;;;;5043318;28;20570;-76
2023/02/04 00:55:26;;;;;;;31.63;5.77;;;;;;;;;;5041489;28;20037;-78
2023/02/04 00:57:52;;;;;;;33.37;5.37;;;;;;;;;;5041158;28;20037;-76
2023/02/04 01:00:18;;;;;;;24.37;4.57;;;;;;;;;;5041903;28;20029;-76
2023/02/04 01:02:44;;;;;;;19.17;4.57;;;;;;;;;;5041605;28;20044;-77
2023/02/04 01:05:10;;;;;;;30.00;5.27;;;;;;;;;;5041213;28;20041;-77
2023/02/04 01:07:37;;;;;;;29.87;5.03;;;;;;;;;;5042645;28;20127;-78
2023/02/04 01:10:03;;;;;;;33.10;6.57;;;;;;;;;;5042558;28;20029;-76
2023/02/04 01:12:29;;;;;;;22.20;3.40;;;;;;;;;;5042678;28;20037;-78
2023/02/04 01:14:55;;;;;;;39.47;5.43;;;;;;;;;;5043161;28;21789;-77
2023/02/04 01:17:21;;;;;;;28.77;5.50;;;;;;;;;;5029713;28;20036;-76
2023/02/04 01:19:47;;;;;;;27.73;5.33;;;;;;;;;;5039869;28;20029;-76
2023/02/04 01:22:13;;;;;;;31.30;5.50;;;;;;;;;;5043955;28;20040;-78
2023/02/04 01:24:39;;;;;;;23.60;4.67;;;;;;;;;;5042185;28;20034;-75
2023/02/04 01:27:05;;;;;;;31.97;5.50;;;;;;;;;;5026156;28;20095;-77
2023/02/04 01:29:31;;;;;;;26.90;5.10;;;;;;;;;;5041596;28;20173;-77
2023/02/04 01:31:57;;;;;;;26.00;4.90;;;;;;;;;;5045296;28;20040;-76
2023/02/04 01:34:26;;;;;;;28.77;4.93;;;;;;;;;;5041896;28;20034;-76
2023/02/04 01:36:52;;;;;;;35.80;6.73;;;;;;;;;;5025471;28;20442;-76
2023/02/04 01:39:18;;;;;;;29.97;4.13;;;;;;;;;;5046327;28;20033;-75
2023/02/04 01:41:44;;;;;;;26.00;4.50;;;;;;;;;;5040279;28;20052;-76
2023/02/04 01:44:10;;;;;;;23.27;5.33;;;;;;;;;;5040725;28;20473;-77
2023/02/04 01:46:36;;;;;;;29.13;4.77;;;;;;;;;;5039036;28;20403;-78
2023/02/04 01:49:05;;;;;;;44.27;6.03;;;;;;;;;;5028320;28;20112;-76
2023/02/04 01:51:34;;;;;;;31.50;4.87;;;;;;;;;;5040340;28;20029;-76
2023/02/04 01:54:00;;;;;;;36.23;5.07;;;;;;;;;;5023577;28;20040;-77
2023/02/04 01:56:26;;;;;;;32.43;4.73;;;;;;;;;;5040351;28;20040;-76
2023/02/04 01:58:53;;;;;;;23.50;4.30;;;;;;;;;;5040222;28;20033;-78
2023/02/04 02:01:34;;;;;;;27.73;5.37;;;;;;;;;;5039332;28;20034;-76
2023/02/04 02:04:00;;;;;;;31.60;5.87;;;;;;;;;;5040001;28;20037;-77
2023/02/04 02:06:29;;;;;;;18.53;4.63;;;;;;;;;;5042639;28;20128;-77
2023/02/04 02:08:57;;;;;;;34.70;5.73;;;;;;;;;;5024823;28;20128;-76
2023/02/04 02:11:25;;;;;;;26.87;5.47;;;;;;;;;;5040032;28;20045;-78
2023/02/04 02:13:51;;;;;;;21.90;5.03;;;;;;;;;;5025283;28;20051;-76
2023/02/04 02:16:17;;;;;;;22.20;4.23;;;;;;;;;;5038841;28;20393;-76
2023/02/04 02:18:44;;;;;;;28.80;5.53;;;;;;;;;;5023586;28;20030;-77
2023/02/04 02:21:11;;;;;;;25.33;4.30;;;;;;;;;;5041817;28;20044;-78
2023/02/04 02:23:43;;;;;;;22.80;4.23;;;;;;;;;;5042696;28;20033;-76
2023/02/04 02:26:09;;;;;;;24.58;3.35;;;;;;;;;;5023594;28;20036;-77
2023/02/04 02:28:35;;;;;;;25.17;4.23;;;;;;;;;;5041169;28;20094;-76
2023/02/04 02:31:01;;;;;;;29.00;5.17;;;;;;;;;;5041533;28;20045;-77
2023/02/04 02:33:27;;;;;;;27.03;3.60;;;;;;;;;;5044630;28;20040;-76
2023/02/04 02:35:58;;;;;;;24.53;4.63;;;;;;;;;;5044963;28;20025;-76
2023/02/04 02:38:24;;;;;;;25.27;4.80;;;;;;;;;;5044811;28;20061;-76
2023/02/04 02:40:51;;;;;;;25.83;3.70;;;;;;;;;;5045055;28;20457;-77
2023/02/04 02:43:21;;;;;;;25.90;4.90;;;;;;;;;;5053782;28;20536;-75
2023/02/04 02:45:48;;;;;;;26.87;5.60;;;;;;;;;;5073392;28;20025;-78
2023/02/04 02:48:14;;;;;;;28.13;4.67;;;;;;;;;;5071801;28;20103;-76
2023/02/04 02:50:41;;;;;;;28.00;3.53;;;;;;;;;;5037658;28;20030;-78
2023/02/04 02:53:12;;;;;;;25.90;5.27;;;;;;;;;;5037528;28;20053;-76
2023/02/04 02:55:38;;;;;;;24.37;4.97;;;;;;;;;;5037608;28;20022;-77
2023/02/04 02:58:04;;;;;;;30.33;3.97;;;;;;;;;;5036421;28;20029;-77
2023/02/04 03:00:30;;;;;;;29.83;5.33;;;;;;;;;;5053656;28;20025;-77
2023/02/04 03:02:59;;;;;;;19.60;3.80;;;;;;;;;;5050125;28;20472;-77
2023/02/04 03:05:29;;;;;;;28.83;4.17;;;;;;;;;;5037721;28;20029;-77
2023/02/04 03:07:55;;;;;;;33.70;4.70;;;;;;;;;;5038814;28;20061;-77
2023/02/04 03:10:23;;;;;;;23.87;3.90;;;;;;;;;;5033226;28;20030;-77
2023/02/04 03:12:49;;;;;;;21.23;3.53;;;;;;;;;;5043793;28;20469;-77
2023/02/04 03:15:15;;;;;;;32.13;5.63;;;;;;;;;;5036576;28;20018;-77
2023/02/04 03:17:42;;;;;;;26.40;4.57;;;;;;;;;;5036216;28;20037;-76
2023/02/04 03:20:12;;;;;;;27.60;4.70;;;;;;;;;;5036220;28;20026;-76
2023/02/04 03:22:39;;;;;;;26.40;4.93;;;;;;;;;;5036102;28;20033;-77
2023/02/04 03:25:05;;;;;;;25.80;4.20;;;;;;;;;;5037241;28;20075;-76
2023/02/04 03:27:31;;;;;;;18.93;4.47;;;;;;;;;;5039420;28;20036;-77
2023/02/04 03:29:57;;;;;;;24.87;4.70;;;;;;;;;;5054634;28;20025;-77
2023/02/04 03:32:23;;;;;;;32.17;5.73;;;;;;;;;;5065820;28;20033;-77
2023/02/04 03:34:49;;;;;;;27.00;4.57;;;;;;;;;;5056839;28;20091;-77
2023/02/04 03:37:15;;;;;;;21.00;4.03;;;;;;;;;;5037711;28;20112;-77
2023/02/04 03:39:41;;;;;;;32.50;5.13;;;;;;;;;;5052535;28;20338;-76
2023/02/04 03:42:07;;;;;;;24.80;4.27;;;;;;;;;;5035654;28;20033;-77
2023/02/04 03:44:33;;;;;;;19.97;3.67;;;;;;;;;;5036311;28;20041;-77
2023/02/04 03:46:59;;;;;;;31.40;4.77;;;;;;;;;;5038229;28;20446;-78
2023/02/04 03:49:25;;;;;;;26.37;3.90;;;;;;;;;;5069247;28;20036;-77
2023/02/04 03:51:51;;;;;;;29.77;5.07;;;;;;;;;;5038553;28;20021;-76
2023/02/04 03:54:17;;;;;;;33.37;4.47;;;;;;;;;;5035067;28;20445;-77
2023/02/04 03:56:43;;;;;;;27.30;4.67;;;;;;;;;;5035957;28;20022;-77
2023/02/04 03:59:11;;;;;;;24.10;4.07;;;;;;;;;;5051281;28;20392;-78
2023/02/04 04:01:37;;;;;;;16.87;3.83;;;;;;;;;;5061137;28;20040;-77
2023/02/04 04:04:03;;;;;;;31.27;4.97;;;;;;;;;;5052206;28;20430;-77
2023/02/04 04:06:30;;;;;;;24.43;3.70;;;;;;;;;;5035076;28;20030;-77
2023/02/04 04:08:56;;;;;;;31.00;4.30;;;;;;;;;;5035294;28;20468;-77
2023/02/04 04:11:22;;;;;;;28.33;5.10;;;;;;;;;;5038763;28;20033;-77
2023/02/04 04:13:48;;;;;;;25.73;4.80;;;;;;;;;;5039921;28;20017;-78
2023/02/04 04:16:14;;;;;;;20.53;4.10;;;;;;;;;;5058167;28;20034;-77
2023/02/04 04:18:40;;;;;;;23.37;4.77;;;;;;;;;;5031838;28;20864;-77
2023/02/04 04:21:06;;;;;;;22.43;5.17;;;;;;;;;;5042550;28;20048;-77
2023/02/04 04:23:32;;;;;;;23.83;5.10;;;;;;;;;;5041498;28;20025;-78
2023/02/04 04:25:58;;;;;;;28.77;4.10;;;;;;;;;;5042066;28;20033;-76
2023/02/04 04:28:24;;;;;;;34.60;4.77;;;;;;;;;;5042491;28;20517;-75
2023/02/04 04:30:50;;;;;;;34.23;4.90;;;;;;;;;;5042180;28;20040;-76
2023/02/04 04:33:16;;;;;;;22.53;3.93;;;;;;;;;;5042252;28;20959;-76
2023/02/04 04:35:44;;;;;;;36.27;4.63;;;;;;;;;;5042007;28;20121;-78
2023/02/04 04:38:10;;;;;;;26.43;4.67;;;;;;;;;;5043205;28;20057;-76
2023/02/04 04:40:36;;;;;;;31.60;4.27;;;;;;;;;;5025781;28;20053;-78
2023/02/04 04:43:02;;;;;;;24.73;4.23;;;;;;;;;;5024789;28;20834;-77
2023/02/04 04:45:28;;;;;;;29.63;4.57;;;;;;;;;;5042503;28;20033;-76
2023/02/04 04:47:54;;;;;;;28.50;5.53;;;;;;;;;;5040062;28;20040;-77
2023/02/04 04:50:20;;;;;;;26.53;4.37;;;;;;;;;;5025463;28;20033;-76
2023/02/04 04:52:46;;;;;;;23.03;4.73;;;;;;;;;;5025525;28;20037;-76
2023/02/04 04:55:13;;;;;;;20.70;3.70;;;;;;;;;;5040533;28;20055;-77
2023/02/04 04:57:39;;;;;;;23.20;4.83;;;;;;;;;;5026319;28;20354;-76
2023/02/04 05:00:05;;;;;;;31.50;4.83;;;;;;;;;;5026969;28;20029;-77
2023/02/04 05:02:31;;;;;;;33.33;5.20;;;;;;;;;;5041158;28;20163;-78
2023/02/04 05:05:00;;;;;;;26.73;4.33;;;;;;;;;;5041239;28;20184;-75
2023/02/04 05:07:26;;;;;;;27.50;5.07;;;;;;;;;;5041028;28;20025;-76
2023/02/04 05:09:52;;;;;;;30.63;4.33;;;;;;;;;;5039060;28;20037;-76
2023/02/04 05:12:18;;;;;;;27.57;4.40;;;;;;;;;;5023521;28;20033;-76
2023/02/04 05:14:44;;;;;;;34.30;5.33;;;;;;;;;;5039604;28;20036;-76
2023/02/04 05:17:11;;;;;;;25.20;4.53;;;;;;;;;;5028117;28;20508;-76
2023/02/04 05:19:37;;;;;;;24.83;4.70;;;;;;;;;;5038992;28;20037;-76
2023/02/04 05:22:03;;;;;;;28.83;4.90;;;;;;;;;;5039477;28;20101;-77
2023/02/04 05:24:29;;;;;;;34.47;5.20;;;;;;;;;;5042094;28;20683;-77
2023/02/04 05:26:55;;;;;;;25.63;4.53;;;;;;;;;;5041103;28;20052;-75
2023/02/04 05:29:21;;;;;;;28.63;5.83;;;;;;;;;;5023459;28;20120;-78
2023/02/04 05:31:47;;;;;;;29.17;5.03;;;;;;;;;;5040558;28;20477;-76
2023/02/04 05:34:13;;;;;;;28.57;4.63;;;;;;;;;;5040111;28;20041;-77
2023/02/04 05:36:39;;;;;;;26.17;3.80;;;;;;;;;;5041775;28;20038;-78
2023/02/04 05:39:05;;;;;;;19.37;5.47;;;;;;;;;;5040372;28;20442;-75
2023/02/04 05:41:31;;;;;;;33.73;5.87;;;;;;;;;;5040975;28;20060;-76
2023/02/04 05:43:57;;;;;;;23.30;4.53;;;;;;;;;;5041107;28;20045;-77
2023/02/04 05:46:23;;;;;;;34.23;5.43;;;;;;;;;;5042440;28;20045;-76
2023/02/04 05:48:49;;;;;;;30.33;5.53;;;;;;;;;;5040689;28;20029;-76
2023/02/04 05:51:15;;;;;;;26.03;5.00;;;;;;;;;;5024491;28;20037;-77
2023/02/04 05:53:41;;;;;;;21.83;4.40;;;;;;;;;;5039958;28;20427;-76
2023/02/04 05:56:07;;;;;;;35.30;5.40;;;;;;;;;;5025378;28;20184;-77
2023/02/04 05:58:33;;;;;;;36.60;6.03;;;;;;;;;;5024171;28;20108;-77
2023/02/04 06:01:02;;;;;;;29.13;4.87;;;;;;;;;;5042844;28;20213;-77
2023/02/04 06:03:29;;;;;;;25.50;4.93;;;;;;;;;;5041203;28;20025;-77
2023/02/04 06:05:55;;;;;;;33.97;4.87;;;;;;;;;;5045381;28;20040;-77
2023/02/04 06:08:21;;;;;;;34.13;5.73;;;;;;;;;;5046905;28;20107;-76
2023/02/04 06:10:47;;;;;;;26.77;5.13;;;;;;;;;;5043138;28;20036;-77
2023/02/04 06:13:13;;;;;;;25.73;3.97;;;;;;;;;;5026970;28;20026;-77
2023/02/04 06:15:39;;;;;;;25.73;5.50;;;;;;;;;;5043127;28;20025;-76
2023/02/04 06:18:05;;;;;;;29.60;4.90;;;;;;;;;;5047039;28;20033;-75
2023/02/04 06:20:31;;;;;;;32.53;5.97;;;;;;;;;;5028516;28;20034;-76
2023/02/04 06:22:57;;;;;;;36.67;4.93;;;;;;;;;;5045220;28;20041;-77
2023/02/04 06:25:23;;;;;;;35.37;5.23;;;;;;;;;;5046715;28;20619;-77
2023/02/04 06:27:49;;;;;;;33.30;5.23;;;;;;;;;;5044417;28;20096;-76
2023/02/04 06:30:15;;;;;;;23.73;4.97;;;;;;;;;;5027389;28;20039;-76
2023/02/04 06:32:42;;;;;;;25.23;4.17;;;;;;;;;;5042921;28;20037;-76
2023/02/04 06:35:11;;;;;;;26.57;4.47;;;;;;;;;;5044046;28;20029;-77
2023/02/04 06:37:38;;;;;;;35.60;5.80;;;;;;;;;;5044434;28;20026;-77
2023/02/04 06:40:07;;;;;;;29.87;5.53;;;;;;;;;;5045452;28;20359;-76
2023/02/04 06:42:33;;;;;;;29.10;5.70;;;;;;;;;;5028336;28;20033;-77
2023/02/04 06:44:59;;;;;;;30.37;5.30;;;;;;;;;;5044647;28;21657;-77
2023/02/04 06:47:25;;;;;;;32.03;6.20;;;;;;;;;;5044242;28;20135;-77
2023/02/04 06:49:51;;;;;;;32.87;5.27;;;;;;;;;;5045595;28;20044;-77
2023/02/04 06:52:20;;;;;;;44.50;5.80;;;;;;;;;;5043499;28;20041;-77
2023/02/04 06:54:46;;;;;;;35.30;5.17;;;;;;;;;;5042955;28;20041;-76
2023/02/04 06:57:12;;;;;;;30.00;6.00;;;;;;;;;;5043781;28;20029;-74
2023/02/04 06:59:42;;;;;;;30.13;5.87;;;;;;;;;;5042457;28;20046;-78
2023/02/04 07:02:08;;;;;;;31.20;6.47;;;;;;;;;;5043832;28;20889;-77
2023/02/04 07:04:37;;;;;;;25.77;4.80;;;;;;;;;;5029926;28;20034;-77
2023/02/04 07:07:03;;;;;;;29.37;5.00;;;;;;;;;;5041714;28;20049;-77
2023/02/04 07:09:29;;;;;;;39.83;7.23;;;;;;;;;;5043335;28;20056;-78
2023/02/04 07:11:55;;;;;;;33.53;5.97;;;;;;;;;;5044068;28;20034;-77
2023/02/04 07:14:21;;;;;;;26.33;5.67;;;;;;;;;;5045605;28;20087;-76
2023/02/04 07:16:47;;;;;;;32.37;5.97;;;;;;;;;;5043295;28;20523;-76
2023/02/04 07:19:13;;;;;;;38.97;6.23;;;;;;;;;;5043510;28;20029;-77
2023/02/04 07:21:41;;;;;;;29.03;5.37;;;;;;;;;;5040813;28;20091;-77
2023/02/04 07:24:07;;;;;;;35.60;7.20;;;;;;;;;;5043625;28;20048;-76
2023/02/04 07:26:33;;;;;;;33.53;7.33;;;;;;;;;;5027766;28;20446;-76
2023/02/04 07:29:01;;;;;;;40.00;6.87;;;;;;;;;;5041546;28;20208;-78
2023/02/04 07:31:27;;;;;;;28.80;6.13;;;;;;;;;;5043205;28;20029;-77
2023/02/04 07:33:55;;;;;;;43.80;6.30;;;;;;;;;;5043383;28;20032;-76
2023/02/04 07:36:22;;;;;;;32.13;6.30;;;;;;;;;;5026831;28;20038;-76
2023/02/04 07:38:48;;;;;;;33.60;6.40;;;;;;;;;;5043829;28;20029;-77
2023/02/04 07:41:14;;;;;;;32.23;6.57;;;;;;;;;;5025552;28;20111;-76
2023/02/04 07:43:40;;;;;;;44.83;7.33;;;;;;;;;;5030970;28;20029;-77
2023/02/04 07:46:06;;;;;;;30.67;7.53;;;;;;;;;;5041382;28;20048;-77
2023/02/04 07:48:32;;;;;;;33.40;6.53;;;;;;;;;;5041764;28;20191;-76
2023/02/04 07:50:58;;;;;;;31.90;7.43;;;;;;;;;;5041611;28;20026;-76
2023/02/04 07:53:24;;;;;;;35.47;7.27;;;;;;;;;;5044270;28;20045;-77
2023/02/04 07:55:50;;;;;;;34.97;6.73;;;;;;;;;;5042699;28;20021;-77
2023/02/04 07:58:16;;;;;;;29.37;6.33;;;;;;;;;;5046150;28;20462;-77
2023/02/04 08:00:42;;;;;;;24.83;6.33;;;;;;;;;;5042541;28;20022;-76
2023/02/04 08:03:08;;;;;;;34.33;6.00;;;;;;;;;;5032741;28;20029;-78
2023/02/04 08:05:33;;;;;;;34.13;7.07;;;;;;;;;;5043662;28;20037;-78
2023/02/04 08:08:00;;;;;;;42.63;8.17;;;;;;;;;;5040323;28;21557;-78
2023/02/04 08:10:27;;;;;;;35.50;6.93;;;;;;;;;;5041564;28;20389;-77
2023/02/04 08:12:52;;;;;;;37.00;7.50;;;;;;;;;;5042654;28;20120;-78
2023/02/04 08:15:18;;;;;;;41.80;7.50;;;;;;;;;;5044607;28;20117;-77
2023/02/04 08:17:44;;;;;;;28.07;6.77;;;;;;;;;;5042877;28;20040;-78
2023/02/04 08:20:11;;;;;;;35.00;6.47;;;;;;;;;;5026198;28;20427;-77
2023/02/04 08:22:37;;;;;;;37.43;7.17;;;;;;;;;;5040320;28;20026;-79
2023/02/04 08:25:04;;;;;;;35.10;7.07;;;;;;;;;;5026175;28;20040;-78
2023/02/04 08:27:30;;;;;;;37.70;7.57;;;;;;;;;;5044818;28;20064;-77
2023/02/04 08:29:58;;;;;;;33.40;5.70;;;;;;;;;;5040544;28;20091;-76
2023/02/04 08:32:26;;;;;;;30.27;6.23;;;;;;;;;;5040341;28;20029;-77
2023/02/04 08:34:52;;;;;;;38.27;7.60;;;;;;;;;;5041291;28;20064;-79
2023/02/04 08:37:18;;;;;;;34.70;6.90;;;;;;;;;;5043853;28;20038;-77
2023/02/04 08:39:45;;;;;;;46.03;7.97;;;;;;;;;;5027488;28;20026;-77
2023/02/04 08:42:11;;;;;;;36.63;7.97;;;;;;;;;;5025041;28;20056;-77
2023/02/04 08:44:37;;;;;;;41.27;7.43;;;;;;;;;;5043935;28;20115;-78
2023/02/04 08:47:03;;;;;;;41.87;8.67;;;;;;;;;;5039220;28;20468;-77
2023/02/04 08:49:29;;;;;;;43.20;8.47;;;;;;;;;;5046426;28;20049;-77
2023/02/04 08:51:57;;;;;;;27.40;6.93;;;;;;;;;;5040242;28;20473;-78
2023/02/04 08:54:25;;;;;;;39.00;6.57;;;;;;;;;;5050440;28;20025;-77
2023/02/04 08:56:51;;;;;;;29.40;6.43;;;;;;;;;;5037382;28;20040;-76
2023/02/04 08:59:21;;;;;;;39.87;7.23;;;;;;;;;;5055917;28;20020;-78
2023/02/04 09:01:48;;;;;;;34.60;6.93;;;;;;;;;;5059270;28;20036;-77
2023/02/04 09:04:14;;;;;;;35.47;8.17;;;;;;;;;;5040837;28;20033;-79
2023/02/04 09:06:42;;;;;;;39.77;7.57;;;;;;;;;;5060510;28;20037;-78
2023/02/04 09:09:08;;;;;;;28.57;7.03;;;;;;;;;;5034379;28;20045;-78
2023/02/04 09:11:34;;;;;;;44.43;8.30;;;;;;;;;;5034106;28;20472;-78
2023/02/04 09:14:02;;;;;;;31.90;6.73;;;;;;;;;;5032170;28;20032;-77
2023/02/04 09:16:28;;;;;;;35.57;6.90;;;;;;;;;;5039084;28;20024;-77
2023/02/04 09:18:54;;;;;;;34.30;8.30;;;;;;;;;;5035833;28;20029;-77
2023/02/04 09:21:23;;;;;;;40.17;7.07;;;;;;;;;;5037487;28;20098;-77
2023/02/04 09:23:51;;;;;;;36.83;7.27;;;;;;;;;;5058005;28;20025;-76
2023/02/04 09:26:17;;;;;;;32.90;7.57;;;;;;;;;;5039569;28;20025;-78
2023/02/04 09:28:43;;;;;;;39.63;7.40;;;;;;;;;;5042458;28;20116;-77
2023/02/04 09:31:10;;;;;;;31.37;7.03;;;;;;;;;;5052167;28;20033;-78
2023/02/04 09:33:36;;;;;;;42.93;8.00;;;;;;;;;;5033983;28;20132;-79
2023/02/04 09:36:02;;;;;;;36.93;7.83;;;;;;;;;;5033794;28;20327;-78
2023/02/04 09:38:30;;;;;;;40.07;7.67;;;;;;;;;;5033812;28;20017;-77
2023/02/04 09:41:01;;;;;;;39.97;8.70;;;;;;;;;;5058605;28;20025;-79
2023/02/04 09:43:29;;;;;;;35.70;6.80;;;;;;;;;;5038500;28;20045;-78
2023/02/04 09:45:55;;;;;;;36.33;7.17;;;;;;;;;;5037681;28;20033;-77
2023/02/04 09:48:24;;;;;;;44.03;8.27;;;;;;;;;;5038176;28;20124;-78
2023/02/04 09:50:52;;;;;;;34.83;7.87;;;;;;;;;;5037883;28;20025;-78
2023/02/04 09:53:22;;;;;;;43.83;9.07;;;;;;;;;;5038747;28;20115;-78
2023/02/04 09:55:51;;;;;;;37.50;8.03;;;;;;;;;;5037768;28;20032;-78
2023/02/04 09:58:19;;;;;;;38.13;8.33;;;;;;;;;;5037623;28;20029;-78
2023/02/04 10:00:46;;;;;;;44.83;8.77;;;;;;;;;;5038937;28;20026;-77
2023/02/04 10:03:22;;;;;;;37.77;7.77;;;;;;;;;;5038505;28;20451;-78
2023/02/04 10:05:48;;;;;;;42.23;10.80;;;;;;;;;;5037934;28;20034;-78
2023/02/04 10:08:16;;;;;;;38.70;10.13;;;;;;;;;;5037882;28;20040;-78
2023/02/04 10:10:42;;;;;;;38.33;9.97;;;;;;;;;;5039372;28;20029;-78
2023/02/04 10:13:12;;;;;;;37.77;12.20;;;;;;;;;;5038277;28;20099;-79
2023/02/04 10:15:41;;;;;;;53.40;11.33;;;;;;;;;;5046446;28;20029;-78
2023/02/04 10:18:07;;;;;;;63.77;11.53;;;;;;;;;;5043665;28;20128;-77
2023/02/04 10:20:33;;;;;;;41.27;10.10;;;;;;;;;;5029243;28;20029;-78
2023/02/04 10:22:59;;;;;;;40.03;10.30;;;;;;;;;;5045780;28;20043;-79
2023/02/04 10:25:25;;;;;;;46.20;10.07;;;;;;;;;;5044741;28;20034;-77
2023/02/04 10:27:56;;;;;;;46.57;12.40;;;;;;;;;;5047152;28;20118;-77
2023/02/04 10:30:32;;;;;;;48.40;11.40;;;;;;;;;;5044433;28;20044;-78
2023/02/04 10:32:58;;;;;;;38.50;12.17;;;;;;;;;;5046256;28;20053;-78
2023/02/04 10:35:24;;;;;;;44.77;12.37;;;;;;;;;;5028181;28;20022;-76
2023/02/04 10:38:02;;;;;;;44.07;13.60;;;;;;;;;;5026698;28;20487;-77
2023/02/04 10:40:30;;;;;;;39.77;11.47;;;;;;;;;;5043744;28;20033;-77
2023/02/04 10:42:56;;;;;;;48.47;13.30;;;;;;;;;;5044252;28;20038;-78
2023/02/04 10:45:26;;;;;;;51.63;13.77;;;;;;;;;;5041436;28;20041;-77
2023/02/04 10:47:53;;;;;;;48.17;14.07;;;;;;;;;;5045922;28;20034;-76
2023/02/04 10:50:20;;;;;;;55.83;15.50;;;;;;;;;;5044804;28;20048;-78
2023/02/04 10:52:51;;;;;;;55.17;14.07;;;;;;;;;;5027478;28;20044;-77
2023/02/04 10:55:19;;;;;;;43.33;14.20;;;;;;;;;;5042677;28;20037;-77
2023/02/04 10:57:47;;;;;;;55.63;14.93;;;;;;;;;;5043924;28;20039;-77
2023/02/04 11:00:20;;;;;;;41.70;13.77;;;;;;;;;;5045647;28;20116;-77
2023/02/04 11:02:52;;;;;;;47.60;16.90;;;;;;;;;;5029259;28;20040;-77
2023/02/04 11:05:22;;;;;;;45.08;14.45;;;;;;;;;;5026870;28;20454;-78
2023/02/04 11:07:49;;;;;;;48.83;14.53;;;;;;;;;;5046461;28;20040;-78
2023/02/04 11:10:17;;;;;;;44.17;14.93;;;;;;;;;;5028393;28;20056;-76
2023/02/04 11:13:00;;;;;;;41.90;13.93;;;;;;;;;;5043157;28;20120;-78
2023/02/04 11:15:46;;;;;;;39.37;13.93;;;;;;;;;;5043579;28;20038;-78
2023/02/04 11:18:21;;;;;;;47.73;13.23;;;;;;;;;;5041932;28;20108;-78
2023/02/04 11:20:48;;;;;;;48.13;13.43;;;;;;;;;;5044066;28;20030;-79
2023/02/04 11:23:16;;;;;;;57.87;16.17;;;;;;;;;;5042500;28;20112;-80
2023/02/04 11:25:42;;;;;;;46.73;14.33;;;;;;;;;;5043815;28;20072;-81
2023/02/04 11:28:26;;;;;;;41.23;14.43;;;;;;;;;;5028086;28;20036;-79
2023/02/04 11:31:05;;;;;;;41.10;14.20;;;;;;;;;;5024027;28;20088;-79
2023/02/04 11:33:40;;;;;;;38.10;14.60;;;;;;;;;;5041340;28;20037;-79
2023/02/04 11:36:08;;;;;;;50.13;14.00;;;;;;;;;;5045119;28;20025;-79
2023/02/04 11:38:34;;;;;;;49.43;15.50;;;;;;;;;;5027592;28;20049;-78
2023/02/04 11:41:00;;;;;;;42.53;14.00;;;;;;;;;;5042169;28;20044;-77
2023/02/04 11:43:29;;;;;;;48.67;14.87;;;;;;;;;;5026904;28;20045;-77
2023/02/04 11:46:05;;;;;;;52.50;16.27;;;;;;;;;;5045518;28;20076;-77
2023/02/04 11:48:34;;;;;;;44.47;14.00;;;;;;;;;;5041264;28;20092;-77
2023/02/04 11:51:01;;;;;;;35.43;13.67;;;;;;;;;;5043851;28;20029;-76
2023/02/04 11:53:31;;;;;;;41.07;12.40;;;;;;;;;;5040672;28;20038;-77
2023/02/04 11:55:57;;;;;;;42.23;13.47;;;;;;;;;;5041431;28;20041;-78
2023/02/04 11:58:24;;;;;;;50.77;14.20;;;;;;;;;;5028814;28;20036;-77
2023/02/04 12:00:51;;;;;;;45.97;13.73;;;;;;;;;;5027935;28;20033;-77
2023/02/04 12:03:25;;;;;;;42.47;13.60;;;;;;;;;;5040786;28;20033;-78
2023/02/04 12:05:53;;;;;;;39.13;13.20;;;;;;;;;;5027384;28;20453;-78
2023/02/04 12:08:25;;;;;;;38.60;13.07;;;;;;;;;;5026443;28;20045;-78
2023/02/04 12:11:10;;;;;;;39.80;11.50;;;;;;;;;;5043136;28;20029;-78
2023/02/04 12:13:51;;;;;;;34.20;11.27;;;;;;;;;;5024184;28;20128;-77
2023/02/04 12:16:17;;;;;;;40.77;13.73;;;;;;;;;;5040504;28;20084;-78
2023/02/04 12:18:43;;;;;;;39.93;11.77;;;;;;;;;;5026814;28;20029;-78
2023/02/04 12:21:09;;;;;;;39.73;11.47;;;;;;;;;;5043156;28;20025;-78
2023/02/04 12:23:35;;;;;;;36.73;9.60;;;;;;;;;;5025909;28;20045;-78
2023/02/04 12:26:01;;;;;;;39.23;11.83;;;;;;;;;;5039626;28;20021;-76
2023/02/04 12:28:28;;;;;;;39.90;9.90;;;;;;;;;;5043795;28;20026;-77
2023/02/04 12:30:54;;;;;;;34.17;11.33;;;;;;;;;;5041549;28;20030;-78
2023/02/04 12:33:21;;;;;;;41.03;11.50;;;;;;;;;;5027139;28;20056;-78
2023/02/04 12:35:47;;;;;;;36.10;10.33;;;;;;;;;;5027836;28;20025;-77
2023/02/04 12:38:15;;;;;;;36.50;10.47;;;;;;;;;;5041580;28;20087;-78
2023/02/04 12:40:41;;;;;;;48.07;10.50;;;;;;;;;;5041363;28;20073;-78
2023/02/04 12:43:07;;;;;;;35.07;9.53;;;;;;;;;;5040195;28;20052;-77
2023/02/04 12:45:34;;;;;;;38.10;10.23;;;;;;;;;;5041989;28;20044;-78
2023/02/04 12:47:59;;;;;;;31.33;9.40;;;;;;;;;;5042870;28;20029;-78
2023/02/04 12:50:26;;;;;;;33.80;9.20;;;;;;;;;;5029027;28;20037;-77
2023/02/04 12:52:52;;;;;;;41.57;8.87;;;;;;;;;;5041115;28;20029;-78
2023/02/04 12:55:19;;;;;;;36.80;9.27;;;;;;;;;;5042052;28;20120;-77
2023/02/04 12:57:45;;;;;;;36.07;10.33;;;;;;;;;;5039568;28;21525;-77
2023/02/04 13:00:14;;;;;;;38.57;9.63;;;;;;;;;;5041711;28;20036;-78
2023/02/04 13:02:40;;;;;;;40.10;7.67;;;;;;;;;;5042746;28;20037;-78
2023/02/04 13:05:06;;;;;;;36.60;7.60;;;;;;;;;;5039885;28;20052;-77
2023/02/04 13:07:32;;;;;;;38.43;7.00;;;;;;;;;;5039992;28;20033;-78
2023/02/04 13:09:59;;;;;;;30.33;7.30;;;;;;;;;;5042802;28;20117;-78
2023/02/04 13:12:25;;;;;;;33.03;7.37;;;;;;;;;;5028079;28;20037;-78
2023/02/04 13:14:51;;;;;;;27.37;8.20;;;;;;;;;;5026013;28;20021;-78
2023/02/04 13:17:17;;;;;;;38.70;9.43;;;;;;;;;;5040660;28;20881;-77
2023/02/04 13:19:43;;;;;;;34.33;8.30;;;;;;;;;;5040357;28;20881;-78
2023/02/04 13:22:11;;;;;;;29.87;8.17;;;;;;;;;;5040997;28;20127;-77
2023/02/04 13:24:37;;;;;;;31.27;8.50;;;;;;;;;;5040749;28;20029;-78
2023/02/04 13:27:06;;;;;;;37.03;8.57;;;;;;;;;;5040493;28;20025;-79
2023/02/04 13:29:32;;;;;;;31.17;8.70;;;;;;;;;;5040010;28;20112;-76
2023/02/04 13:31:58;;;;;;;34.07;8.90;;;;;;;;;;5041447;28;20120;-76
2023/02/04 13:34:24;;;;;;;34.33;7.33;;;;;;;;;;5040808;28;20029;-76
2023/02/04 13:36:50;;;;;;;34.37;7.10;;;;;;;;;;5040266;28;20041;-76
2023/02/04 13:39:18;;;;;;;34.30;7.20;;;;;;;;;;5042276;28;20517;-78
2023/02/04 13:41:45;;;;;;;32.80;7.20;;;;;;;;;;5023302;28;20473;-77
2023/02/04 13:44:11;;;;;;;35.33;6.33;;;;;;;;;;5042164;28;20041;-77
2023/02/04 13:46:37;;;;;;;31.60;6.70;;;;;;;;;;5043322;28;20025;-78
2023/02/04 13:49:03;;;;;;;36.77;6.93;;;;;;;;;;5042529;28;20025;-76
2023/02/04 13:51:29;;;;;;;23.50;5.57;;;;;;;;;;5047492;28;20681;-78
2023/02/04 13:53:55;;;;;;;23.67;4.83;;;;;;;;;;5028968;28;20025;-78
2023/02/04 13:56:24;;;;;;;28.53;6.00;;;;;;;;;;5041904;28;20034;-79
2023/02/04 13:58:50;;;;;;;29.90;5.77;;;;;;;;;;5040927;28;20037;-77
2023/02/04 14:01:16;;;;;;;25.17;6.80;;;;;;;;;;5024548;28;20448;-77
2023/02/04 14:03:42;;;;;;;27.70;5.87;;;;;;;;;;5027888;28;20033;-78
2023/02/04 14:06:09;;;;;;;29.37;5.43;;;;;;;;;;5026583;28;20056;-78
2023/02/04 14:08:35;;;;;;;24.87;6.83;;;;;;;;;;5041171;28;20366;-78
2023/02/04 14:11:01;;;;;;;28.20;5.67;;;;;;;;;;5042078;28;20095;-78
2023/02/04 14:13:30;;;;;;;32.63;6.30;;;;;;;;;;5041808;28;20103;-78
2023/02/04 14:15:58;;;;;;;22.47;5.20;;;;;;;;;;5042504;28;20120;-77
2023/02/04 14:18:24;;;;;;;27.63;5.83;;;;;;;;;;5042184;28;20065;-78
2023/02/04 14:20:52;;;;;;;21.57;5.30;;;;;;;;;;5039670;28;20060;-78
2023/02/04 14:23:18;;;;;;;25.80;5.43;;;;;;;;;;5026046;28;20676;-76
2023/02/04 14:25:44;;;;;;;22.93;5.77;;;;;;;;;;5038695;28;20025;-77
2023/02/04 14:28:10;;;;;;;22.83;4.97;;;;;;;;;;5042331;28;20041;-78